sensor_id;sensor_type;location;lat;lon;timestamp;P1;durP1;ratioP1;P2;durP2;ratioP2
20181;SDS011;10250;50.756;6.172;2023-05-16T00:00:45;13.30;;;3.30;;
20181;SDS011;10250;50.756;6.172;2023-05-16T00:02:47;10.23;;;2.90;;
20181;SDS011;10250;50.756;6.172;2023-05-16T00:04:48;10.17;;;2.50;;
20181;SDS011;10250;50.756;6.172;2023-05-16T00:06:49;8.07;;;2.47;;
20181;SDS011;10250;50.756;6.172;2023-05-16T00:08:50;8.20;;;2.40;;
20181;SDS011;10250;50.756;6.172;2023-05-16T00:10:51;10.60;;;2.57;;
20181;SDS011;10250;50.756;6.172;2023-05-16T00:12:52;7.17;;;1.97;;
20181;SDS011;10250;50.756;6.172;2023-05-16T00:14:53;7.30;;;2.17;;
20181;SDS011;10250;50.756;6.172;2023-05-16T00:16:56;8.80;;;2.13;;
20181;SDS011;10250;50.756;6.172;2023-05-16T00:18:58;6.27;;;1.60;;
20181;SDS011;10250;50.756;6.172;2023-05-16T00:20:59;6.30;;;1.63;;
20181;SDS011;10250;50.756;6.172;2023-05-16T00:23:01;4.63;;;1.50;;
20181;SDS011;10250;50.756;6.172;2023-05-16T00:25:02;4.97;;;1.40;;
20181;SDS011;10250;50.756;6.172;2023-05-16T00:27:04;5.93;;;1.40;;
20181;SDS011;10250;50.756;6.172;2023-05-16T00:29:05;5.13;;;1.40;;
20181;SDS011;10250;50.756;6.172;2023-05-16T00:31:06;2.93;;;1.10;;
20181;SDS011;10250;50.756;6.172;2023-05-16T00:33:07;5.70;;;1.43;;
20181;SDS011;10250;50.756;6.172;2023-05-16T00:35:08;5.50;;;1.43;;
20181;SDS011;10250;50.756;6.172;2023-05-16T00:37:10;4.53;;;1.40;;
20181;SDS011;10250;50.756;6.172;2023-05-16T00:39:11;7.73;;;1.67;;
20181;SDS011;10250;50.756;6.172;2023-05-16T00:41:12;6.43;;;1.80;;
20181;SDS011;10250;50.756;6.172;2023-05-16T00:43:13;8.27;;;1.63;;
20181;SDS011;10250;50.756;6.172;2023-05-16T00:45:14;5.97;;;1.40;;
20181;SDS011;10250;50.756;6.172;2023-05-16T00:47:15;7.17;;;1.70;;
20181;SDS011;10250;50.756;6.172;2023-05-16T00:49:16;5.37;;;1.30;;
20181;SDS011;10250;50.756;6.172;2023-05-16T00:51:17;3.77;;;1.00;;
20181;SDS011;10250;50.756;6.172;2023-05-16T00:53:18;5.57;;;1.00;;
20181;SDS011;10250;50.756;6.172;2023-05-16T00:55:20;4.60;;;1.10;;
20181;SDS011;10250;50.756;6.172;2023-05-16T00:57:21;4.57;;;1.20;;
20181;SDS011;10250;50.756;6.172;2023-05-16T00:59:23;5.97;;;1.57;;
20181;SDS011;10250;50.756;6.172;2023-05-16T01:01:24;5.77;;;1.50;;
20181;SDS011;10250;50.756;6.172;2023-05-16T01:03:26;6.97;;;1.43;;
20181;SDS011;10250;50.756;6.172;2023-05-16T01:05:27;6.23;;;1.50;;
20181;SDS011;10250;50.756;6.172;2023-05-16T01:07:28;6.20;;;1.60;;
20181;SDS011;10250;50.756;6.172;2023-05-16T01:09:30;5.23;;;1.37;;
20181;SDS011;10250;50.756;6.172;2023-05-16T01:13:54;5.87;;;1.33;;
20181;SDS011;10250;50.756;6.172;2023-05-16T01:16:01;6.33;;;1.47;;
20181;SDS011;10250;50.756;6.172;2023-05-16T01:18:07;6.07;;;1.33;;
20181;SDS011;10250;50.756;6.172;2023-05-16T01:22:35;8.47;;;1.40;;
20181;SDS011;10250;50.756;6.172;2023-05-16T01:26:57;5.47;;;1.30;;
20181;SDS011;10250;50.756;6.172;2023-05-16T01:28:59;5.17;;;1.40;;
20181;SDS011;10250;50.756;6.172;2023-05-16T01:31:01;4.10;;;1.37;;
20181;SDS011;10250;50.756;6.172;2023-05-16T01:33:02;4.93;;;1.20;;
20181;SDS011;10250;50.756;6.172;2023-05-16T01:35:04;7.23;;;1.40;;
20181;SDS011;10250;50.756;6.172;2023-05-16T01:37:08;8.20;;;1.50;;
20181;SDS011;10250;50.756;6.172;2023-05-16T01:41:27;7.57;;;1.47;;
20181;SDS011;10250;50.756;6.172;2023-05-16T01:43:34;5.67;;;1.50;;
20181;SDS011;10250;50.756;6.172;2023-05-16T01:45:37;7.63;;;1.37;;
20181;SDS011;10250;50.756;6.172;2023-05-16T01:47:40;6.43;;;1.70;;
20181;SDS011;10250;50.756;6.172;2023-05-16T01:51:48;4.70;;;1.53;;
20181;SDS011;10250;50.756;6.172;2023-05-16T01:53:50;8.03;;;1.70;;
20181;SDS011;10250;50.756;6.172;2023-05-16T01:55:52;6.67;;;1.67;;
20181;SDS011;10250;50.756;6.172;2023-05-16T01:57:55;10.47;;;1.77;;
20181;SDS011;10250;50.756;6.172;2023-05-16T01:59:57;7.97;;;1.67;;
20181;SDS011;10250;50.756;6.172;2023-05-16T02:01:58;5.20;;;1.60;;
20181;SDS011;10250;50.756;6.172;2023-05-16T02:03:59;9.83;;;1.70;;
20181;SDS011;10250;50.756;6.172;2023-05-16T02:06:00;10.23;;;1.80;;
20181;SDS011;10250;50.756;6.172;2023-05-16T02:08:01;10.23;;;2.00;;
20181;SDS011;10250;50.756;6.172;2023-05-16T02:10:02;9.90;;;1.73;;
20181;SDS011;10250;50.756;6.172;2023-05-16T02:12:04;5.57;;;1.77;;
20181;SDS011;10250;50.756;6.172;2023-05-16T02:14:05;9.50;;;1.90;;
20181;SDS011;10250;50.756;6.172;2023-05-16T02:16:06;9.47;;;2.00;;
20181;SDS011;10250;50.756;6.172;2023-05-16T02:18:07;7.13;;;1.67;;
20181;SDS011;10250;50.756;6.172;2023-05-16T02:20:08;9.97;;;1.70;;
20181;SDS011;10250;50.756;6.172;2023-05-16T02:22:10;9.47;;;1.83;;
20181;SDS011;10250;50.756;6.172;2023-05-16T02:24:11;10.90;;;1.97;;
20181;SDS011;10250;50.756;6.172;2023-05-16T02:26:12;10.77;;;2.00;;
20181;SDS011;10250;50.756;6.172;2023-05-16T02:28:13;5.80;;;1.60;;
20181;SDS011;10250;50.756;6.172;2023-05-16T02:30:14;12.70;;;2.27;;
20181;SDS011;10250;50.756;6.172;2023-05-16T02:32:15;8.00;;;1.80;;
20181;SDS011;10250;50.756;6.172;2023-05-16T02:34:16;11.40;;;1.97;;
20181;SDS011;10250;50.756;6.172;2023-05-16T02:36:17;10.97;;;2.00;;
20181;SDS011;10250;50.756;6.172;2023-05-16T02:38:18;9.87;;;1.60;;
20181;SDS011;10250;50.756;6.172;2023-05-16T02:40:20;9.00;;;1.93;;
20181;SDS011;10250;50.756;6.172;2023-05-16T02:42:21;7.90;;;1.87;;
20181;SDS011;10250;50.756;6.172;2023-05-16T02:44:22;8.43;;;1.80;;
20181;SDS011;10250;50.756;6.172;2023-05-16T02:48:24;9.53;;;1.60;;
20181;SDS011;10250;50.756;6.172;2023-05-16T02:50:25;5.27;;;1.47;;
20181;SDS011;10250;50.756;6.172;2023-05-16T02:52:26;7.20;;;1.83;;
20181;SDS011;10250;50.756;6.172;2023-05-16T02:54:26;11.07;;;2.00;;
20181;SDS011;10250;50.756;6.172;2023-05-16T02:56:27;9.40;;;1.77;;
20181;SDS011;10250;50.756;6.172;2023-05-16T02:58:28;8.77;;;1.90;;
20181;SDS011;10250;50.756;6.172;2023-05-16T03:00:29;7.87;;;1.80;;
20181;SDS011;10250;50.756;6.172;2023-05-16T03:02:30;9.03;;;1.80;;
20181;SDS011;10250;50.756;6.172;2023-05-16T03:04:31;7.67;;;1.70;;
20181;SDS011;10250;50.756;6.172;2023-05-16T03:06:32;8.93;;;2.57;;
20181;SDS011;10250;50.756;6.172;2023-05-16T03:08:33;7.87;;;1.90;;
20181;SDS011;10250;50.756;6.172;2023-05-16T03:10:35;9.63;;;1.90;;
20181;SDS011;10250;50.756;6.172;2023-05-16T03:12:35;8.63;;;2.10;;
20181;SDS011;10250;50.756;6.172;2023-05-16T03:14:36;9.13;;;1.70;;
20181;SDS011;10250;50.756;6.172;2023-05-16T03:16:37;11.17;;;2.00;;
20181;SDS011;10250;50.756;6.172;2023-05-16T03:18:40;11.23;;;2.00;;
20181;SDS011;10250;50.756;6.172;2023-05-16T03:20:41;10.17;;;2.07;;
20181;SDS011;10250;50.756;6.172;2023-05-16T03:22:42;6.70;;;1.40;;
20181;SDS011;10250;50.756;6.172;2023-05-16T03:24:44;9.20;;;1.77;;
20181;SDS011;10250;50.756;6.172;2023-05-16T03:26:45;7.63;;;1.90;;
20181;SDS011;10250;50.756;6.172;2023-05-16T03:28:46;9.70;;;1.60;;
20181;SDS011;10250;50.756;6.172;2023-05-16T03:30:48;13.10;;;2.30;;
20181;SDS011;10250;50.756;6.172;2023-05-16T03:32:49;7.37;;;1.60;;
20181;SDS011;10250;50.756;6.172;2023-05-16T03:34:50;10.63;;;2.17;;
20181;SDS011;10250;50.756;6.172;2023-05-16T03:36:51;8.03;;;1.60;;
20181;SDS011;10250;50.756;6.172;2023-05-16T03:38:53;9.77;;;2.00;;
20181;SDS011;10250;50.756;6.172;2023-05-16T03:40:54;10.27;;;2.03;;
20181;SDS011;10250;50.756;6.172;2023-05-16T03:42:55;11.53;;;2.07;;
20181;SDS011;10250;50.756;6.172;2023-05-16T03:44:56;10.40;;;1.80;;
20181;SDS011;10250;50.756;6.172;2023-05-16T03:46:56;8.57;;;1.70;;
20181;SDS011;10250;50.756;6.172;2023-05-16T03:48:57;10.47;;;1.90;;
20181;SDS011;10250;50.756;6.172;2023-05-16T03:50:58;10.40;;;1.97;;
20181;SDS011;10250;50.756;6.172;2023-05-16T03:52:59;10.47;;;2.03;;
20181;SDS011;10250;50.756;6.172;2023-05-16T03:55:00;12.17;;;2.13;;
20181;SDS011;10250;50.756;6.172;2023-05-16T03:57:04;10.27;;;1.90;;
20181;SDS011;10250;50.756;6.172;2023-05-16T03:59:06;8.23;;;1.67;;
20181;SDS011;10250;50.756;6.172;2023-05-16T04:01:07;11.13;;;2.27;;
20181;SDS011;10250;50.756;6.172;2023-05-16T04:03:08;11.07;;;2.10;;
20181;SDS011;10250;50.756;6.172;2023-05-16T04:05:09;8.57;;;1.83;;
20181;SDS011;10250;50.756;6.172;2023-05-16T04:07:11;5.87;;;1.60;;
20181;SDS011;10250;50.756;6.172;2023-05-16T04:09:12;12.43;;;2.10;;
20181;SDS011;10250;50.756;6.172;2023-05-16T04:11:13;8.30;;;1.57;;
20181;SDS011;10250;50.756;6.172;2023-05-16T04:13:14;7.37;;;1.93;;
20181;SDS011;10250;50.756;6.172;2023-05-16T04:15:15;6.50;;;1.90;;
20181;SDS011;10250;50.756;6.172;2023-05-16T04:17:16;13.00;;;2.00;;
20181;SDS011;10250;50.756;6.172;2023-05-16T04:19:17;12.03;;;2.10;;
20181;SDS011;10250;50.756;6.172;2023-05-16T04:21:18;10.30;;;2.53;;
20181;SDS011;10250;50.756;6.172;2023-05-16T04:23:19;9.20;;;1.90;;
20181;SDS011;10250;50.756;6.172;2023-05-16T04:25:19;10.73;;;2.20;;
20181;SDS011;10250;50.756;6.172;2023-05-16T04:27:20;10.40;;;2.03;;
20181;SDS011;10250;50.756;6.172;2023-05-16T04:29:22;11.97;;;2.20;;
20181;SDS011;10250;50.756;6.172;2023-05-16T04:31:26;8.90;;;2.03;;
20181;SDS011;10250;50.756;6.172;2023-05-16T04:33:27;7.70;;;1.67;;
20181;SDS011;10250;50.756;6.172;2023-05-16T04:35:28;11.10;;;2.33;;
20181;SDS011;10250;50.756;6.172;2023-05-16T04:37:29;15.67;;;2.27;;
20181;SDS011;10250;50.756;6.172;2023-05-16T04:39:30;9.33;;;2.10;;
20181;SDS011;10250;50.756;6.172;2023-05-16T04:41:31;8.30;;;1.80;;
20181;SDS011;10250;50.756;6.172;2023-05-16T04:43:34;7.80;;;1.70;;
20181;SDS011;10250;50.756;6.172;2023-05-16T04:45:35;10.40;;;1.83;;
20181;SDS011;10250;50.756;6.172;2023-05-16T04:47:36;9.50;;;1.60;;
20181;SDS011;10250;50.756;6.172;2023-05-16T04:49:37;10.27;;;1.93;;
20181;SDS011;10250;50.756;6.172;2023-05-16T04:51:38;9.17;;;1.60;;
20181;SDS011;10250;50.756;6.172;2023-05-16T04:53:39;10.23;;;1.80;;
20181;SDS011;10250;50.756;6.172;2023-05-16T04:55:40;12.47;;;2.13;;
20181;SDS011;10250;50.756;6.172;2023-05-16T04:57:53;7.57;;;1.43;;
20181;SDS011;10250;50.756;6.172;2023-05-16T04:59:54;7.87;;;1.80;;
20181;SDS011;10250;50.756;6.172;2023-05-16T05:01:55;10.63;;;1.87;;
20181;SDS011;10250;50.756;6.172;2023-05-16T05:04:20;11.20;;;1.77;;
20181;SDS011;10250;50.756;6.172;2023-05-16T05:06:27;7.50;;;1.70;;
20181;SDS011;10250;50.756;6.172;2023-05-16T05:08:28;12.07;;;1.70;;
20181;SDS011;10250;50.756;6.172;2023-05-16T05:10:28;8.73;;;1.80;;
20181;SDS011;10250;50.756;6.172;2023-05-16T05:12:30;7.50;;;1.63;;
20181;SDS011;10250;50.756;6.172;2023-05-16T05:14:31;9.70;;;1.80;;
20181;SDS011;10250;50.756;6.172;2023-05-16T05:16:32;8.70;;;1.80;;
20181;SDS011;10250;50.756;6.172;2023-05-16T05:18:33;6.90;;;1.87;;
20181;SDS011;10250;50.756;6.172;2023-05-16T05:20:34;7.57;;;1.77;;
20181;SDS011;10250;50.756;6.172;2023-05-16T05:22:35;11.87;;;1.90;;
20181;SDS011;10250;50.756;6.172;2023-05-16T05:24:36;11.50;;;2.50;;
20181;SDS011;10250;50.756;6.172;2023-05-16T05:26:37;10.53;;;1.83;;
20181;SDS011;10250;50.756;6.172;2023-05-16T05:28:38;12.97;;;2.17;;
20181;SDS011;10250;50.756;6.172;2023-05-16T05:30:40;10.27;;;1.63;;
20181;SDS011;10250;50.756;6.172;2023-05-16T05:32:41;9.43;;;1.90;;
20181;SDS011;10250;50.756;6.172;2023-05-16T05:34:42;6.63;;;1.53;;
20181;SDS011;10250;50.756;6.172;2023-05-16T05:36:43;7.00;;;1.77;;
20181;SDS011;10250;50.756;6.172;2023-05-16T05:38:44;12.63;;;1.73;;
20181;SDS011;10250;50.756;6.172;2023-05-16T05:40:45;7.70;;;1.80;;
20181;SDS011;10250;50.756;6.172;2023-05-16T05:42:46;10.50;;;2.00;;
20181;SDS011;10250;50.756;6.172;2023-05-16T05:44:47;10.17;;;1.87;;
20181;SDS011;10250;50.756;6.172;2023-05-16T05:46:48;6.63;;;1.57;;
20181;SDS011;10250;50.756;6.172;2023-05-16T05:48:49;7.67;;;1.97;;
20181;SDS011;10250;50.756;6.172;2023-05-16T05:50:50;8.37;;;1.83;;
20181;SDS011;10250;50.756;6.172;2023-05-16T05:52:52;6.80;;;1.57;;
20181;SDS011;10250;50.756;6.172;2023-05-16T05:54:53;12.87;;;2.17;;
20181;SDS011;10250;50.756;6.172;2023-05-16T05:56:54;9.07;;;1.97;;
20181;SDS011;10250;50.756;6.172;2023-05-16T05:58:55;9.73;;;1.93;;
20181;SDS011;10250;50.756;6.172;2023-05-16T06:00:55;13.63;;;2.23;;
20181;SDS011;10250;50.756;6.172;2023-05-16T06:02:56;9.93;;;1.90;;
20181;SDS011;10250;50.756;6.172;2023-05-16T06:04:57;11.17;;;1.97;;
20181;SDS011;10250;50.756;6.172;2023-05-16T06:06:58;4.90;;;1.50;;
20181;SDS011;10250;50.756;6.172;2023-05-16T06:08:59;8.43;;;1.77;;
20181;SDS011;10250;50.756;6.172;2023-05-16T06:11:00;10.83;;;2.10;;
20181;SDS011;10250;50.756;6.172;2023-05-16T06:13:01;11.73;;;1.93;;
20181;SDS011;10250;50.756;6.172;2023-05-16T06:15:02;8.47;;;1.70;;
20181;SDS011;10250;50.756;6.172;2023-05-16T06:17:03;15.53;;;2.03;;
20181;SDS011;10250;50.756;6.172;2023-05-16T06:19:04;9.00;;;1.80;;
20181;SDS011;10250;50.756;6.172;2023-05-16T06:21:06;6.40;;;1.50;;
20181;SDS011;10250;50.756;6.172;2023-05-16T06:23:07;9.50;;;1.47;;
20181;SDS011;10250;50.756;6.172;2023-05-16T06:25:08;8.90;;;1.77;;
20181;SDS011;10250;50.756;6.172;2023-05-16T06:27:09;9.83;;;1.77;;
20181;SDS011;10250;50.756;6.172;2023-05-16T06:29:10;8.90;;;1.80;;
20181;SDS011;10250;50.756;6.172;2023-05-16T06:31:11;7.43;;;1.60;;
20181;SDS011;10250;50.756;6.172;2023-05-16T06:33:13;8.93;;;1.57;;
20181;SDS011;10250;50.756;6.172;2023-05-16T06:35:14;8.87;;;1.40;;
20181;SDS011;10250;50.756;6.172;2023-05-16T06:37:15;11.47;;;1.70;;
20181;SDS011;10250;50.756;6.172;2023-05-16T06:39:16;10.33;;;1.60;;
20181;SDS011;10250;50.756;6.172;2023-05-16T06:41:21;6.77;;;1.67;;
20181;SDS011;10250;50.756;6.172;2023-05-16T06:43:22;9.47;;;1.60;;
20181;SDS011;10250;50.756;6.172;2023-05-16T06:45:23;10.13;;;1.77;;
20181;SDS011;10250;50.756;6.172;2023-05-16T06:47:24;12.50;;;1.90;;
20181;SDS011;10250;50.756;6.172;2023-05-16T06:49:25;12.43;;;1.80;;
20181;SDS011;10250;50.756;6.172;2023-05-16T06:51:26;9.27;;;1.70;;
20181;SDS011;10250;50.756;6.172;2023-05-16T06:53:27;5.40;;;1.30;;
20181;SDS011;10250;50.756;6.172;2023-05-16T06:55:28;8.93;;;1.90;;
20181;SDS011;10250;50.756;6.172;2023-05-16T06:57:29;9.47;;;1.70;;
20181;SDS011;10250;50.756;6.172;2023-05-16T06:59:31;10.50;;;1.70;;
20181;SDS011;10250;50.756;6.172;2023-05-16T07:01:31;8.67;;;1.60;;
20181;SDS011;10250;50.756;6.172;2023-05-16T07:03:47;8.93;;;1.67;;
20181;SDS011;10250;50.756;6.172;2023-05-16T07:05:48;11.50;;;2.07;;
20181;SDS011;10250;50.756;6.172;2023-05-16T07:07:51;10.20;;;1.50;;
20181;SDS011;10250;50.756;6.172;2023-05-16T07:09:52;5.53;;;1.70;;
20181;SDS011;10250;50.756;6.172;2023-05-16T07:11:53;4.17;;;1.37;;
20181;SDS011;10250;50.756;6.172;2023-05-16T07:13:54;7.63;;;1.73;;
20181;SDS011;10250;50.756;6.172;2023-05-16T07:15:55;6.93;;;1.57;;
20181;SDS011;10250;50.756;6.172;2023-05-16T07:17:56;8.07;;;1.77;;
20181;SDS011;10250;50.756;6.172;2023-05-16T07:19:57;11.83;;;1.67;;
20181;SDS011;10250;50.756;6.172;2023-05-16T07:21:58;10.30;;;1.83;;
20181;SDS011;10250;50.756;6.172;2023-05-16T07:23:59;9.93;;;1.77;;
20181;SDS011;10250;50.756;6.172;2023-05-16T07:26:00;8.30;;;1.60;;
20181;SDS011;10250;50.756;6.172;2023-05-16T07:28:01;7.10;;;2.03;;
20181;SDS011;10250;50.756;6.172;2023-05-16T07:30:02;3.50;;;1.10;;
20181;SDS011;10250;50.756;6.172;2023-05-16T07:32:03;12.80;;;1.73;;
20181;SDS011;10250;50.756;6.172;2023-05-16T07:34:05;8.87;;;1.80;;
20181;SDS011;10250;50.756;6.172;2023-05-16T07:36:06;11.73;;;1.67;;
20181;SDS011;10250;50.756;6.172;2023-05-16T07:38:07;6.13;;;1.43;;
20181;SDS011;10250;50.756;6.172;2023-05-16T07:40:09;5.43;;;1.50;;
20181;SDS011;10250;50.756;6.172;2023-05-16T07:42:10;9.57;;;1.53;;
20181;SDS011;10250;50.756;6.172;2023-05-16T07:44:11;5.20;;;1.27;;
20181;SDS011;10250;50.756;6.172;2023-05-16T07:46:12;9.47;;;1.50;;
20181;SDS011;10250;50.756;6.172;2023-05-16T07:48:13;10.73;;;1.80;;
20181;SDS011;10250;50.756;6.172;2023-05-16T07:50:14;6.60;;;1.67;;
20181;SDS011;10250;50.756;6.172;2023-05-16T07:52:15;6.07;;;1.30;;
20181;SDS011;10250;50.756;6.172;2023-05-16T07:54:16;9.47;;;1.63;;
20181;SDS011;10250;50.756;6.172;2023-05-16T07:56:17;5.67;;;1.47;;
20181;SDS011;10250;50.756;6.172;2023-05-16T07:58:18;9.30;;;1.50;;
20181;SDS011;10250;50.756;6.172;2023-05-16T08:00:20;6.77;;;1.50;;
20181;SDS011;10250;50.756;6.172;2023-05-16T08:02:21;11.17;;;1.90;;
20181;SDS011;10250;50.756;6.172;2023-05-16T08:04:29;10.80;;;2.30;;
20181;SDS011;10250;50.756;6.172;2023-05-16T08:06:30;7.50;;;1.80;;
20181;SDS011;10250;50.756;6.172;2023-05-16T08:08:31;7.57;;;2.00;;
20181;SDS011;10250;50.756;6.172;2023-05-16T08:10:32;9.23;;;1.87;;
20181;SDS011;10250;50.756;6.172;2023-05-16T08:12:33;5.93;;;1.90;;
20181;SDS011;10250;50.756;6.172;2023-05-16T08:14:34;9.13;;;1.47;;
20181;SDS011;10250;50.756;6.172;2023-05-16T08:16:36;7.07;;;2.10;;
20181;SDS011;10250;50.756;6.172;2023-05-16T08:18:37;7.70;;;1.80;;
20181;SDS011;10250;50.756;6.172;2023-05-16T08:20:38;7.80;;;1.80;;
20181;SDS011;10250;50.756;6.172;2023-05-16T08:22:40;6.03;;;1.50;;
20181;SDS011;10250;50.756;6.172;2023-05-16T08:24:41;8.13;;;1.40;;
20181;SDS011;10250;50.756;6.172;2023-05-16T08:26:42;6.30;;;1.40;;
20181;SDS011;10250;50.756;6.172;2023-05-16T08:28:43;5.53;;;1.00;;
20181;SDS011;10250;50.756;6.172;2023-05-16T08:30:44;5.03;;;1.13;;
20181;SDS011;10250;50.756;6.172;2023-05-16T08:32:45;5.80;;;1.40;;
20181;SDS011;10250;50.756;6.172;2023-05-16T08:34:46;5.67;;;1.07;;
20181;SDS011;10250;50.756;6.172;2023-05-16T08:36:47;7.50;;;1.20;;
20181;SDS011;10250;50.756;6.172;2023-05-16T08:38:48;7.43;;;1.30;;
20181;SDS011;10250;50.756;6.172;2023-05-16T08:40:49;5.03;;;1.20;;
20181;SDS011;10250;50.756;6.172;2023-05-16T08:42:50;8.90;;;1.40;;
20181;SDS011;10250;50.756;6.172;2023-05-16T08:44:52;2.87;;;1.00;;
20181;SDS011;10250;50.756;6.172;2023-05-16T08:46:53;7.17;;;1.10;;
20181;SDS011;10250;50.756;6.172;2023-05-16T08:48:57;5.93;;;1.00;;
20181;SDS011;10250;50.756;6.172;2023-05-16T08:50:59;7.97;;;1.33;;
20181;SDS011;10250;50.756;6.172;2023-05-16T08:53:03;6.40;;;1.40;;
20181;SDS011;10250;50.756;6.172;2023-05-16T08:55:06;7.20;;;1.40;;
20181;SDS011;10250;50.756;6.172;2023-05-16T08:57:08;6.87;;;1.20;;
20181;SDS011;10250;50.756;6.172;2023-05-16T08:59:10;9.17;;;1.13;;
20181;SDS011;10250;50.756;6.172;2023-05-16T09:01:11;8.70;;;1.67;;
20181;SDS011;10250;50.756;6.172;2023-05-16T09:03:12;9.20;;;1.50;;
20181;SDS011;10250;50.756;6.172;2023-05-16T09:05:14;6.37;;;1.27;;
20181;SDS011;10250;50.756;6.172;2023-05-16T09:07:15;9.73;;;1.47;;
20181;SDS011;10250;50.756;6.172;2023-05-16T09:09:16;6.43;;;1.40;;
20181;SDS011;10250;50.756;6.172;2023-05-16T09:11:18;10.23;;;1.60;;
20181;SDS011;10250;50.756;6.172;2023-05-16T09:13:20;4.87;;;1.57;;
20181;SDS011;10250;50.756;6.172;2023-05-16T09:15:21;6.63;;;1.47;;
20181;SDS011;10250;50.756;6.172;2023-05-16T09:17:22;8.13;;;1.63;;
20181;SDS011;10250;50.756;6.172;2023-05-16T09:19:23;5.20;;;1.20;;
20181;SDS011;10250;50.756;6.172;2023-05-16T09:21:28;10.70;;;1.87;;
20181;SDS011;10250;50.756;6.172;2023-05-16T09:23:30;9.23;;;1.97;;
20181;SDS011;10250;50.756;6.172;2023-05-16T09:25:33;9.20;;;1.50;;
20181;SDS011;10250;50.756;6.172;2023-05-16T09:27:34;11.50;;;1.60;;
20181;SDS011;10250;50.756;6.172;2023-05-16T09:29:35;10.23;;;1.57;;
20181;SDS011;10250;50.756;6.172;2023-05-16T09:31:36;6.33;;;1.57;;
20181;SDS011;10250;50.756;6.172;2023-05-16T09:33:37;6.70;;;1.47;;
20181;SDS011;10250;50.756;6.172;2023-05-16T09:35:41;7.43;;;1.60;;
20181;SDS011;10250;50.756;6.172;2023-05-16T09:37:45;7.70;;;1.63;;
20181;SDS011;10250;50.756;6.172;2023-05-16T09:39:51;6.50;;;1.70;;
20181;SDS011;10250;50.756;6.172;2023-05-16T09:41:52;7.73;;;1.73;;
20181;SDS011;10250;50.756;6.172;2023-05-16T09:43:53;6.83;;;1.67;;
20181;SDS011;10250;50.756;6.172;2023-05-16T09:45:55;10.67;;;1.50;;
20181;SDS011;10250;50.756;6.172;2023-05-16T09:48:05;5.60;;;1.60;;
20181;SDS011;10250;50.756;6.172;2023-05-16T09:50:06;6.47;;;1.40;;
20181;SDS011;10250;50.756;6.172;2023-05-16T09:52:07;4.77;;;1.13;;
20181;SDS011;10250;50.756;6.172;2023-05-16T09:54:09;5.57;;;1.17;;
20181;SDS011;10250;50.756;6.172;2023-05-16T09:56:11;4.30;;;1.00;;
20181;SDS011;10250;50.756;6.172;2023-05-16T09:58:15;6.03;;;1.30;;
20181;SDS011;10250;50.756;6.172;2023-05-16T10:00:17;3.90;;;1.13;;
20181;SDS011;10250;50.756;6.172;2023-05-16T10:02:21;9.43;;;1.50;;
20181;SDS011;10250;50.756;6.172;2023-05-16T10:04:29;7.23;;;1.20;;
20181;SDS011;10250;50.756;6.172;2023-05-16T10:06:30;5.87;;;1.10;;
20181;SDS011;10250;50.756;6.172;2023-05-16T10:08:32;5.87;;;1.17;;
20181;SDS011;10250;50.756;6.172;2023-05-16T10:10:37;5.97;;;1.30;;
20181;SDS011;10250;50.756;6.172;2023-05-16T10:12:39;6.00;;;1.50;;
20181;SDS011;10250;50.756;6.172;2023-05-16T10:14:46;6.73;;;1.37;;
20181;SDS011;10250;50.756;6.172;2023-05-16T10:16:49;6.73;;;1.40;;
20181;SDS011;10250;50.756;6.172;2023-05-16T10:18:54;6.83;;;1.20;;
20181;SDS011;10250;50.756;6.172;2023-05-16T10:20:56;4.57;;;1.17;;
20181;SDS011;10250;50.756;6.172;2023-05-16T10:23:18;12.93;;;1.70;;
20181;SDS011;10250;50.756;6.172;2023-05-16T10:25:36;8.10;;;1.50;;
20181;SDS011;10250;50.756;6.172;2023-05-16T10:27:47;8.87;;;1.57;;
20181;SDS011;10250;50.756;6.172;2023-05-16T10:29:48;7.37;;;1.40;;
20181;SDS011;10250;50.756;6.172;2023-05-16T10:31:55;11.00;;;1.53;;
20181;SDS011;10250;50.756;6.172;2023-05-16T10:33:59;3.97;;;1.30;;
20181;SDS011;10250;50.756;6.172;2023-05-16T10:36:05;3.70;;;1.23;;
20181;SDS011;10250;50.756;6.172;2023-05-16T10:38:07;7.20;;;1.37;;
20181;SDS011;10250;50.756;6.172;2023-05-16T10:40:09;6.03;;;1.37;;
20181;SDS011;10250;50.756;6.172;2023-05-16T10:42:11;4.63;;;1.03;;
20181;SDS011;10250;50.756;6.172;2023-05-16T10:44:17;7.80;;;1.17;;
20181;SDS011;10250;50.756;6.172;2023-05-16T10:46:20;8.10;;;1.37;;
20181;SDS011;10250;50.756;6.172;2023-05-16T10:48:31;5.77;;;1.30;;
20181;SDS011;10250;50.756;6.172;2023-05-16T10:50:36;5.50;;;1.10;;
20181;SDS011;10250;50.756;6.172;2023-05-16T10:52:37;8.03;;;1.60;;
20181;SDS011;10250;50.756;6.172;2023-05-16T10:54:39;7.30;;;1.30;;
20181;SDS011;10250;50.756;6.172;2023-05-16T10:56:40;3.13;;;0.83;;
20181;SDS011;10250;50.756;6.172;2023-05-16T10:58:42;6.57;;;1.23;;
20181;SDS011;10250;50.756;6.172;2023-05-16T11:00:46;6.37;;;1.00;;
20181;SDS011;10250;50.756;6.172;2023-05-16T11:02:47;2.87;;;0.93;;
20181;SDS011;10250;50.756;6.172;2023-05-16T11:04:51;5.03;;;1.03;;
20181;SDS011;10250;50.756;6.172;2023-05-16T11:06:56;6.47;;;1.03;;
20181;SDS011;10250;50.756;6.172;2023-05-16T11:13:28;5.40;;;1.17;;
20181;SDS011;10250;50.756;6.172;2023-05-16T11:15:32;6.23;;;1.10;;
20181;SDS011;10250;50.756;6.172;2023-05-16T11:18:19;6.70;;;1.47;;
20181;SDS011;10250;50.756;6.172;2023-05-16T11:19:58;5.27;;;1.10;;
20181;SDS011;10250;50.756;6.172;2023-05-16T11:24:27;6.70;;;1.20;;
20181;SDS011;10250;50.756;6.172;2023-05-16T11:26:29;4.47;;;1.07;;
20181;SDS011;10250;50.756;6.172;2023-05-16T11:28:31;5.27;;;1.00;;
20181;SDS011;10250;50.756;6.172;2023-05-16T11:30:32;4.47;;;1.10;;
20181;SDS011;10250;50.756;6.172;2023-05-16T11:32:33;6.67;;;1.17;;
20181;SDS011;10250;50.756;6.172;2023-05-16T11:34:35;4.20;;;1.03;;
20181;SDS011;10250;50.756;6.172;2023-05-16T11:36:39;3.80;;;0.97;;
20181;SDS011;10250;50.756;6.172;2023-05-16T11:38:41;7.43;;;1.17;;
20181;SDS011;10250;50.756;6.172;2023-05-16T11:40:45;4.30;;;1.17;;
20181;SDS011;10250;50.756;6.172;2023-05-16T11:42:49;6.43;;;0.90;;
20181;SDS011;10250;50.756;6.172;2023-05-16T11:44:58;6.83;;;0.93;;
20181;SDS011;10250;50.756;6.172;2023-05-16T11:47:03;4.97;;;1.20;;
20181;SDS011;10250;50.756;6.172;2023-05-16T11:49:13;5.27;;;1.03;;
20181;SDS011;10250;50.756;6.172;2023-05-16T11:51:16;5.23;;;1.17;;
20181;SDS011;10250;50.756;6.172;2023-05-16T11:53:18;2.93;;;1.03;;
20181;SDS011;10250;50.756;6.172;2023-05-16T11:55:19;5.07;;;1.17;;
20181;SDS011;10250;50.756;6.172;2023-05-16T11:57:20;4.77;;;1.07;;
20181;SDS011;10250;50.756;6.172;2023-05-16T11:59:21;17.30;;;3.37;;
20181;SDS011;10250;50.756;6.172;2023-05-16T12:01:22;9.83;;;2.07;;
20181;SDS011;10250;50.756;6.172;2023-05-16T12:03:28;11.67;;;2.03;;
20181;SDS011;10250;50.756;6.172;2023-05-16T12:05:32;9.50;;;1.67;;
20181;SDS011;10250;50.756;6.172;2023-05-16T12:07:33;6.97;;;1.23;;
20181;SDS011;10250;50.756;6.172;2023-05-16T12:09:34;9.57;;;1.60;;
20181;SDS011;10250;50.756;6.172;2023-05-16T12:11:36;5.03;;;1.30;;
20181;SDS011;10250;50.756;6.172;2023-05-16T12:13:37;4.83;;;1.30;;
20181;SDS011;10250;50.756;6.172;2023-05-16T12:15:38;5.13;;;0.90;;
20181;SDS011;10250;50.756;6.172;2023-05-16T12:17:39;2.63;;;0.83;;
20181;SDS011;10250;50.756;6.172;2023-05-16T12:19:43;3.63;;;1.00;;
20181;SDS011;10250;50.756;6.172;2023-05-16T12:21:47;4.07;;;1.17;;
20181;SDS011;10250;50.756;6.172;2023-05-16T12:23:54;7.90;;;1.20;;
20181;SDS011;10250;50.756;6.172;2023-05-16T12:25:58;2.63;;;0.60;;
20181;SDS011;10250;50.756;6.172;2023-05-16T12:28:06;4.70;;;1.00;;
20181;SDS011;10250;50.756;6.172;2023-05-16T12:30:07;5.83;;;1.17;;
20181;SDS011;10250;50.756;6.172;2023-05-16T12:32:12;5.27;;;1.10;;
20181;SDS011;10250;50.756;6.172;2023-05-16T12:34:16;3.73;;;1.10;;